Time;durP1;ratioP1;P1;durP2;ratioP2;P2;SDS_P1;SDS_P2;PMS_P1;PMS_P2;Temp;Humidity;BMP_temperature;BMP_pressure;BME280_temperature;BME280_humidity;BME280_pressure;Samples;Min_cycle;Max_cycle;Signal;HPM_P1;HPM_P2
2024/04/02 00:01:27;;;;;;;1.00;0.40;;;;;;;6.78;100.00;99565.53;6181878;23;20033;-73
2024/04/02 00:03:53;;;;;;;4.30;0.50;;;;;;;6.82;100.00;99560.38;6182124;23;20032;-74
2024/04/02 00:06:21;;;;;;;1.35;0.68;;;;;;;6.82;100.00;99559.63;6181541;23;20310;-74
2024/04/02 00:08:47;;;;;;;1.45;0.43;;;;;;;6.83;100.00;99561.13;6182455;23;20029;-74
2024/04/02 00:11:17;;;;;;;1.65;0.60;;;;;;;6.90;100.00;99554.88;6181686;23;20091;-74
2024/04/02 00:13:45;;;;;;;1.00;0.40;;;;;;;6.88;100.00;99565.72;6181598;23;20020;-74
2024/04/02 00:16:13;;;;;;;3.40;0.50;;;;;;;7.08;100.00;99567.50;6180945;23;20029;-73
2024/04/02 00:18:41;;;;;;;2.65;0.80;;;;;;;7.13;100.00;99578.88;6181629;23;20024;-74
2024/04/02 00:21:10;;;;;;;2.38;0.50;;;;;;;7.07;100.00;99579.81;6179413;23;20020;-74
2024/04/02 00:23:36;;;;;;;1.10;0.43;;;;;;;7.08;100.00;99586.81;6156462;23;20060;-74
2024/04/02 00:26:04;;;;;;;0.93;0.43;;;;;;;7.11;100.00;99587.72;6156707;23;20021;-74
2024/04/02 00:28:30;;;;;;;1.75;0.65;;;;;;;7.16;100.00;99584.03;6181880;23;20132;-73
2024/04/02 00:31:00;;;;;;;3.30;0.40;;;;;;;7.14;100.00;99585.88;6156229;23;20052;-74
2024/04/02 00:33:26;;;;;;;;;;;;;;;7.04;100.00;99593.97;6182590;23;20029;-74
2024/04/02 00:36:03;;;;;;;0.98;0.50;;;;;;;7.03;100.00;99596.00;6182091;23;19920;-73
2024/04/02 00:38:30;;;;;;;1.00;0.47;;;;;;;7.02;100.00;99607.59;6182386;23;20020;-74
2024/04/02 00:40:58;;;;;;;0.22;0.10;;;;;;;6.95;100.00;99608.34;6157870;23;20024;-73
2024/04/02 00:43:26;;;;;;;3.53;0.50;;;;;;;6.88;100.00;99613.31;6182389;23;20032;-74
2024/04/02 00:45:54;;;;;;;1.17;0.50;;;;;;;6.92;100.00;99615.69;6180985;23;20079;-73
2024/04/02 00:48:22;;;;;;;2.88;0.50;;;;;;;6.91;100.00;99617.00;6157434;23;20465;-74
2024/04/02 00:50:53;;;;;;;0.75;0.30;;;;;;;6.93;100.00;99616.44;6157859;23;20498;-74
2024/04/02 00:53:22;;;;;;;2.53;0.68;;;;;;;6.89;100.00;99616.81;6181764;23;20051;-74
2024/04/02 00:55:51;;;;;;;0.88;0.40;;;;;;;6.83;100.00;99622.53;6182049;23;20028;-73
2024/04/02 00:58:18;;;;;;;0.73;0.30;;;;;;;6.84;100.00;99626.00;6181759;23;20016;-74
2024/04/02 01:00:45;;;;;;;1.38;0.60;;;;;;;6.77;100.00;99616.44;6180687;23;20592;-74
2024/04/02 01:03:12;;;;;;;2.17;0.50;;;;;;;6.75;100.00;99632.06;6180430;23;20028;-73
2024/04/02 01:05:40;;;;;;;1.33;0.30;;;;;;;6.70;100.00;99631.00;6179752;23;20028;-73
2024/04/02 01:08:11;;;;;;;1.35;0.50;;;;;;;6.69;100.00;99635.03;6180459;23;20029;-74
2024/04/02 01:10:40;;;;;;;0.73;0.20;;;;;;;6.68;100.00;99630.81;6180977;23;20032;-73
2024/04/02 01:13:09;;;;;;;0.95;0.47;;;;;;;6.65;100.00;99626.38;6156219;23;20028;-74
2024/04/02 01:15:37;;;;;;;0.70;0.50;;;;;;;6.65;100.00;99631.88;6180629;23;20032;-74
2024/04/02 01:18:03;;;;;;;0.90;0.28;;;;;;;6.59;100.00;99637.59;6180634;23;20028;-73
2024/04/02 01:20:31;;;;;;;1.48;0.55;;;;;;;6.59;100.00;99639.63;6181327;23;20484;-74
2024/04/02 01:22:59;;;;;;;1.15;0.60;;;;;;;6.55;100.00;99636.47;6179612;23;20028;-73
2024/04/02 01:25:30;;;;;;;6.43;0.90;;;;;;;6.58;100.00;99633.38;6181619;23;20513;-74
2024/04/02 01:27:57;;;;;;;1.05;0.40;;;;;;;6.59;100.00;99642.38;6182269;23;20075;-74
2024/04/02 01:30:25;;;;;;;3.20;1.50;;;;;;;6.58;100.00;99644.41;6182841;23;20020;-73
2024/04/02 01:32:53;;;;;;;0.30;0.22;;;;;;;6.53;100.00;99639.06;6183321;23;20029;-74
2024/04/02 01:35:20;;;;;;;0.65;0.28;;;;;;;6.48;100.00;99646.25;6196786;23;20035;-73
2024/04/02 01:37:47;;;;;;;2.25;0.50;;;;;;;6.53;100.00;99641.81;6210783;23;20024;-73
2024/04/02 01:40:15;;;;;;;1.20;0.55;;;;;;;6.53;100.00;99650.06;6211854;23;20009;-72
2024/04/02 01:42:43;;;;;;;1.23;0.25;;;;;;;6.54;100.00;99643.28;6212154;23;20024;-73
2024/04/02 01:45:12;;;;;;;0.55;0.25;;;;;;;6.46;100.00;99646.78;6211914;23;20025;-73
2024/04/02 01:47:38;;;;;;;1.05;0.45;;;;;;;6.42;100.00;99648.41;6212189;23;20028;-73
2024/04/02 01:50:07;;;;;;;0.60;0.20;;;;;;;6.38;100.00;99659.81;6188894;23;20028;-75
2024/04/02 01:52:34;;;;;;;0.20;0.17;;;;;;;6.44;100.00;99657.59;6193841;23;20581;-74
2024/04/02 01:55:05;;;;;;;0.68;0.35;;;;;;;6.42;100.00;99660.19;6184040;23;20029;-75
2024/04/02 01:57:32;;;;;;;0.73;0.30;;;;;;;6.37;100.00;99660.34;6183692;23;20024;-75
2024/04/02 02:00:00;;;;;;;2.45;0.30;;;;;;;6.37;100.00;99660.34;6194182;23;20039;-74
2024/04/02 02:02:27;;;;;;;0.95;0.30;;;;;;;6.33;100.00;99669.00;6206395;23;20120;-76
2024/04/02 02:04:55;;;;;;;2.45;0.60;;;;;;;6.31;100.00;99670.84;6194474;23;20071;-75
2024/04/02 02:07:21;;;;;;;1.95;0.55;;;;;;;6.28;100.00;99678.16;6183425;23;20085;-74
2024/04/02 02:09:50;;;;;;;2.60;0.40;;;;;;;6.35;100.00;99677.44;6182638;23;20545;-74
2024/04/02 02:12:17;;;;;;;1.40;0.60;;;;;;;6.33;100.00;99682.00;6183247;23;20028;-74
2024/04/02 02:14:47;;;;;;;2.03;0.45;;;;;;;6.29;100.00;99676.16;6182055;23;20701;-74
2024/04/02 02:17:14;;;;;;;0.82;0.25;;;;;;;6.37;100.00;99679.66;6158781;23;20517;-75
2024/04/02 02:19:42;;;;;;;1.08;0.50;;;;;;;6.45;100.00;99675.63;6184190;23;20028;-74
2024/04/02 02:22:08;;;;;;;0.98;0.20;;;;;;;6.38;100.00;99670.84;6185203;23;20027;-74
2024/04/02 02:24:36;;;;;;;2.33;0.60;;;;;;;6.32;100.00;99677.81;6184496;23;20024;-76
2024/04/02 02:27:03;;;;;;;0.52;0.22;;;;;;;6.23;100.00;99682.56;6208648;23;20037;-74
2024/04/02 02:29:31;;;;;;;0.50;0.22;;;;;;;6.20;100.00;99685.66;6184664;23;20033;-74
2024/04/02 02:31:57;;;;;;;2.47;0.47;;;;;;;6.14;100.00;99685.09;6186095;23;20431;-74
2024/04/02 02:34:28;;;;;;;0.32;0.13;;;;;;;6.15;100.00;99687.31;6186395;23;20044;-74
2024/04/02 02:36:54;;;;;;;0.55;0.30;;;;;;;6.12;100.00;99698.69;6185110;23;20024;-73
2024/04/02 02:39:24;;;;;;;1.20;0.30;;;;;;;6.16;100.00;99699.81;6184354;23;20391;-74
2024/04/02 02:41:52;;;;;;;0.90;0.45;;;;;;;6.29;100.00;99704.44;6197536;23;20075;-74
2024/04/02 02:44:21;;;;;;;0.55;0.32;;;;;;;6.50;100.00;99711.81;6204691;23;20086;-74
2024/04/02 02:46:47;;;;;;;1.05;0.50;;;;;;;6.59;100.00;99719.56;6202596;23;20028;-73
2024/04/02 02:49:15;;;;;;;0.50;0.20;;;;;;;6.68;100.00;99716.28;6189584;23;20025;-74
2024/04/02 02:51:44;;;;;;;1.10;0.50;;;;;;;6.89;100.00;99699.53;6184762;23;20059;-74
2024/04/02 02:54:12;;;;;;;1.80;0.55;;;;;;;6.80;100.00;99713.88;6199426;23;20032;-74
2024/04/02 02:56:39;;;;;;;1.02;0.22;;;;;;;6.72;100.00;99715.91;6175346;23;20276;-74
2024/04/02 02:59:07;;;;;;;2.90;0.73;;;;;;;6.72;100.00;99708.34;6205838;23;20036;-73
2024/04/02 03:01:34;;;;;;;1.30;0.30;;;;;;;6.70;100.00;99702.69;6206902;23;20021;-74
2024/04/02 03:04:04;;;;;;;0.57;0.20;;;;;;;6.77;100.00;99715.72;6195755;23;20032;-73
2024/04/02 03:06:31;;;;;;;0.57;0.30;;;;;;;6.76;100.00;99717.00;6182149;23;20031;-74
2024/04/02 03:09:00;;;;;;;5.22;0.50;;;;;;;6.88;100.00;99715.34;6182087;23;20028;-73
2024/04/02 03:11:27;;;;;;;1.30;0.50;;;;;;;6.95;100.00;99716.66;6157413;23;20024;-74
2024/04/02 03:13:54;;;;;;;0.60;0.28;;;;;;;6.98;100.00;99723.09;6182126;23;20545;-74
2024/04/02 03:16:22;;;;;;;4.28;0.60;;;;;;;7.01;100.00;99733.00;6181548;23;20036;-74
2024/04/02 03:18:49;;;;;;;1.25;0.47;;;;;;;7.08;100.00;99732.28;6181778;23;20025;-73
2024/04/02 03:21:15;;;;;;;0.95;0.35;;;;;;;7.12;100.00;99732.63;6180940;23;20021;-74
2024/04/02 03:23:43;;;;;;;2.72;0.35;;;;;;;7.18;100.00;99747.00;6181889;23;20052;-75
2024/04/02 03:26:12;;;;;;;1.02;0.43;;;;;;;7.33;100.00;99732.44;6133597;23;20029;-74
2024/04/02 03:28:39;;;;;;;5.60;0.30;;;;;;;7.29;100.00;99743.09;6182273;23;20032;-75
2024/04/02 03:31:06;;;;;;;0.47;0.20;;;;;;;7.32;100.00;99740.00;6181423;23;20098;-75
2024/04/02 03:33:33;;;;;;;1.92;0.38;;;;;;;7.33;100.00;99735.19;6181809;23;20025;-75
2024/04/02 03:36:02;;;;;;;0.20;0.10;;;;;;;7.31;100.00;99730.22;6179286;23;20024;-76
2024/04/02 03:38:32;;;;;;;0.93;0.30;;;;;;;7.31;100.00;99735.00;6157234;23;20020;-74
2024/04/02 03:41:07;;;;;;;5.53;0.35;;;;;;;7.36;100.00;99739.59;6181568;23;20574;-74
2024/04/02 03:43:36;;;;;;;1.80;0.32;;;;;;;7.40;100.00;99742.00;6181653;23;20473;-73
2024/04/02 03:46:03;;;;;;;0.85;0.38;;;;;;;7.36;100.00;99741.63;6181423;23;20028;-74
2024/04/02 03:48:31;;;;;;;0.93;0.30;;;;;;;7.37;100.00;99743.09;6181821;23;20028;-74
2024/04/02 03:50:57;;;;;;;0.57;0.10;;;;;;;7.36;100.00;99745.13;6182812;23;20468;-73
2024/04/02 03:53:25;;;;;;;0.47;0.28;;;;;;;7.36;100.00;99747.88;6185765;23;20020;-75
2024/04/02 03:55:56;;;;;;;1.45;0.50;;;;;;;7.37;100.00;99754.91;6182443;23;20029;-74
2024/04/02 03:58:25;;;;;;;0.82;0.30;;;;;;;7.41;100.00;99757.28;6182077;23;20032;-75
2024/04/02 04:00:54;;;;;;;0.85;0.35;;;;;;;7.40;100.00;99756.53;6157463;23;20020;-74
2024/04/02 04:03:22;;;;;;;0.97;0.27;;;;;;;7.42;100.00;99753.22;6178309;23;20107;-74
2024/04/02 04:05:56;;;;;;;0.98;0.35;;;;;;;7.40;100.00;99761.34;6151889;23;20025;-75
2024/04/02 04:08:26;;;;;;;0.88;0.25;;;;;;;7.43;100.00;99757.47;6152699;23;20032;-76
2024/04/02 04:10:53;;;;;;;2.03;0.40;;;;;;;7.43;100.00;99758.19;6128209;23;20104;-75
2024/04/02 04:13:21;;;;;;;0.77;0.22;;;;;;;7.44;100.00;99756.91;6152291;23;20571;-76
2024/04/02 04:15:53;;;;;;;0.45;0.20;;;;;;;7.47;100.00;99766.13;6127848;23;20025;-74
2024/04/02 04:18:22;;;;;;;0.68;0.30;;;;;;;7.53;100.00;99772.16;6152475;23;20031;-74
2024/04/02 04:20:52;;;;;;;1.55;0.28;;;;;;;7.57;100.00;99769.03;6176235;23;20025;-75
2024/04/02 04:23:20;;;;;;;1.13;0.35;;;;;;;7.53;100.00;99772.91;6152160;23;20519;-75
2024/04/02 04:25:46;;;;;;;1.00;0.40;;;;;;;7.57;100.00;99780.06;6151805;23;20052;-74
2024/04/02 04:28:14;;;;;;;0.13;0.10;;;;;;;7.58;100.00;99781.56;6152457;23;20025;-74
2024/04/02 04:30:41;;;;;;;1.13;0.30;;;;;;;7.64;100.00;99788.34;6152052;23;20044;-75
2024/04/02 04:33:10;;;;;;;0.57;0.20;;;;;;;7.61;100.00;99781.16;6104057;23;20025;-75
2024/04/02 04:35:36;;;;;;;0.65;0.40;;;;;;;7.62;100.00;99785.41;6152051;23;20094;-75
2024/04/02 04:38:04;;;;;;;1.55;0.60;;;;;;;7.71;100.00;99784.09;6151777;23;20044;-75
2024/04/02 04:40:35;;;;;;;1.23;0.40;;;;;;;7.73;100.00;99782.25;6152576;23;20064;-75
2024/04/02 04:43:05;;;;;;;1.58;0.68;;;;;;;7.73;100.00;99781.50;6152461;23;20031;-75
2024/04/02 04:45:32;;;;;;;1.95;0.50;;;;;;;7.68;100.00;99777.66;6152871;23;20060;-75
2024/04/02 04:48:00;;;;;;;0.88;0.55;;;;;;;7.68;100.00;99776.94;6129797;23;20025;-76
2024/04/02 04:50:28;;;;;;;2.53;0.30;;;;;;;7.68;100.00;99780.41;6154513;23;20033;-75
2024/04/02 04:52:56;;;;;;;0.85;0.22;;;;;;;7.72;100.00;99791.09;6155298;23;20078;-76
2024/04/02 04:55:22;;;;;;;0.82;0.30;;;;;;;7.73;100.00;99784.28;6133478;23;20028;-74
2024/04/02 04:57:52;;;;;;;0.30;0.10;;;;;;;7.78;100.00;99794.41;6163449;23;20100;-75
2024/04/02 05:00:19;;;;;;;;;;;;;;;7.82;100.00;99796.78;6153357;23;20029;-76
2024/04/02 05:02:46;;;;;;;0.93;0.20;;;;;;;7.79;100.00;99800.66;6131041;23;20442;-75
2024/04/02 05:05:14;;;;;;;1.95;0.45;;;;;;;7.82;100.00;99803.06;6176921;23;20035;-76
2024/04/02 05:07:55;;;;;;;1.55;0.43;;;;;;;7.81;100.00;99800.84;6177886;23;20041;-75
2024/04/02 05:10:23;;;;;;;0.85;0.30;;;;;;;7.84;100.00;99813.53;6177305;23;20048;-75
2024/04/02 05:12:50;;;;;;;1.30;0.50;;;;;;;7.82;100.00;99818.88;6177641;23;20108;-75
2024/04/02 05:15:17;;;;;;;3.55;0.22;;;;;;;7.85;100.00;99818.50;6177524;23;20032;-75
2024/04/02 05:17:47;;;;;;;1.52;0.40;;;;;;;7.95;100.00;99813.88;6178536;23;20021;-76
2024/04/02 05:20:13;;;;;;;0.82;0.25;;;;;;;7.88;100.00;99824.94;6178596;23;20036;-75
2024/04/02 05:22:41;;;;;;;0.63;0.32;;;;;;;7.82;100.00;99819.63;6203176;23;20056;-76
2024/04/02 05:25:10;;;;;;;1.63;0.45;;;;;;;7.85;100.00;99829.56;6203883;23;20025;-75
2024/04/02 05:27:37;;;;;;;3.50;0.70;;;;;;;7.90;100.00;99833.41;6179003;23;20622;-75
2024/04/02 05:30:04;;;;;;;8.48;0.95;;;;;;;7.88;100.00;99824.94;6203368;23;20017;-75
2024/04/02 05:32:33;;;;;;;0.28;0.10;;;;;;;7.90;100.00;99850.00;6177908;23;20079;-76
2024/04/02 05:35:00;;;;;;;0.35;0.20;;;;;;;7.91;100.00;99841.16;6177926;23;20546;-76
2024/04/02 05:37:27;;;;;;;0.32;0.10;;;;;;;7.98;100.00;99845.19;6203034;23;20051;-76
2024/04/02 05:39:54;;;;;;;0.20;0.17;;;;;;;7.94;100.00;99856.63;6202682;23;20029;-76
2024/04/02 05:42:22;;;;;;;0.75;0.30;;;;;;;7.98;100.00;99847.94;6153605;23;20021;-76
2024/04/02 05:44:50;;;;;;;1.23;0.30;;;;;;;7.98;100.00;99845.19;6203513;23;20117;-74
2024/04/02 05:47:18;;;;;;;2.58;0.65;;;;;;;7.97;100.00;99840.94;6203435;23;20383;-76
2024/04/02 05:49:44;;;;;;;3.85;0.38;;;;;;;8.04;100.00;99847.75;6203576;23;20499;-75
2024/04/02 05:52:12;;;;;;;1.80;0.73;;;;;;;8.06;100.00;99851.44;6178854;23;20802;-75
2024/04/02 05:54:38;;;;;;;0.85;0.40;;;;;;;8.04;100.00;99856.06;6204551;23;20028;-75
2024/04/02 05:57:06;;;;;;;1.65;0.45;;;;;;;8.13;100.00;99861.00;6182139;23;20116;-76
2024/04/02 05:59:33;;;;;;;0.40;0.20;;;;;;;8.06;100.00;99867.25;6188970;23;20044;-75
2024/04/02 06:02:01;;;;;;;1.70;0.57;;;;;;;8.05;100.00;99874.09;6195003;23;20021;-74
2024/04/02 06:04:27;;;;;;;0.82;0.60;;;;;;;8.00;100.00;99878.50;6188606;23;20108;-74
2024/04/02 06:06:55;;;;;;;1.90;0.20;;;;;;;8.04;100.00;99887.19;6180089;23;20329;-74
2024/04/02 06:09:21;;;;;;;0.88;0.32;;;;;;;8.01;100.00;99885.53;6221016;23;20031;-74
2024/04/02 06:11:49;;;;;;;0.85;0.32;;;;;;;8.04;100.00;99884.41;6197522;23;20048;-76
2024/04/02 06:14:17;;;;;;;;;;;;;;;8.11;100.00;99894.72;6185530;23;20079;-74
2024/04/02 06:16:46;;;;;;;1.27;0.30;;;;;;;8.14;100.00;99890.84;6177468;23;19981;-75
2024/04/02 06:19:13;;;;;;;0.98;0.30;;;;;;;8.19;100.00;99898.19;6177233;23;20104;-75
2024/04/02 06:21:40;;;;;;;0.57;0.17;;;;;;;8.24;100.00;99896.53;6201444;23;20017;-75
2024/04/02 06:24:07;;;;;;;1.30;0.40;;;;;;;8.27;100.00;99905.75;6176913;23;20024;-74
2024/04/02 06:26:34;;;;;;;1.08;0.20;;;;;;;8.39;100.00;99899.28;6177767;23;20021;-74
2024/04/02 06:29:01;;;;;;;0.45;0.20;;;;;;;8.37;100.00;99899.06;6177284;23;20693;-74
2024/04/02 06:31:28;;;;;;;2.13;0.30;;;;;;;8.40;100.00;99906.28;6201900;23;20363;-74
2024/04/02 06:33:56;;;;;;;0.17;0.15;;;;;;;8.39;100.00;99898.53;6177560;23;20363;-74
2024/04/02 06:36:25;;;;;;;1.10;0.20;;;;;;;8.45;100.00;99903.88;6177549;23;20036;-74
2024/04/02 06:38:52;;;;;;;0.20;0.08;;;;;;;8.45;100.00;99909.41;6177696;23;20029;-74
2024/04/02 06:41:19;;;;;;;3.53;0.93;;;;;;;8.43;100.00;99909.94;6200933;23;20525;-74
2024/04/02 06:43:46;;;;;;;0.52;0.10;;;;;;;8.55;100.00;99919.31;6202222;23;20106;-74
2024/04/02 06:46:13;;;;;;;0.30;0.13;;;;;;;8.60;100.00;99921.16;6176835;23;20021;-74
2024/04/02 06:48:40;;;;;;;0.60;0.30;;;;;;;8.64;100.00;99926.31;6203224;23;20116;-74
2024/04/02 06:51:08;;;;;;;1.30;0.47;;;;;;;8.69;100.00;99919.09;6202805;23;20025;-74
2024/04/02 06:53:35;;;;;;;2.08;0.55;;;;;;;8.76;100.00;99924.59;6177731;23;20029;-74
2024/04/02 06:56:05;;;;;;;1.75;0.47;;;;;;;8.75;100.00;99916.84;6177701;23;20029;-76
2024/04/02 06:58:31;;;;;;;;;;;;;;;8.77;100.00;99923.28;6178451;23;20025;-76
2024/04/02 07:00:58;;;;;;;1.55;0.38;;;;;;;8.79;100.00;99923.47;6177671;23;19920;-75
2024/04/02 07:03:25;;;;;;;0.57;0.20;;;;;;;8.78;100.00;99918.53;6177726;23;20084;-75
2024/04/02 07:05:54;;;;;;;1.25;0.10;;;;;;;8.75;100.00;99928.69;6177632;23;20036;-75
2024/04/02 07:08:24;;;;;;;6.93;1.20;;;;;;;8.73;100.00;99934.03;6177661;23;20374;-75
2024/04/02 07:10:59;;;;;;;0.63;0.30;;;;;;;8.82;100.00;99929.91;6177805;23;20021;-75
2024/04/02 07:13:25;;;;;;;0.35;0.28;;;;;;;8.73;100.00;99945.09;6152637;23;20479;-76
2024/04/02 07:15:54;;;;;;;0.73;0.20;;;;;;;8.74;100.00;99935.50;6177434;23;20024;-75
2024/04/02 07:18:20;;;;;;;0.73;0.25;;;;;;;8.82;100.00;99943.75;6178159;23;20025;-75
2024/04/02 07:20:58;;;;;;;0.90;0.20;;;;;;;8.78;100.00;99946.19;6177633;23;20101;-74
2024/04/02 07:23:26;;;;;;;0.85;0.20;;;;;;;8.72;100.00;99945.63;6203489;23;20025;-76
2024/04/02 07:25:54;;;;;;;0.25;0.10;;;;;;;8.82;100.00;99949.28;6179878;23;20040;-75
2024/04/02 07:28:21;;;;;;;1.88;0.35;;;;;;;8.74;100.00;99954.13;6183288;23;20025;-74
2024/04/02 07:30:50;;;;;;;1.60;0.10;;;;;;;8.78;100.00;99962.78;6187381;23;20079;-76
2024/04/02 07:33:23;;;;;;;0.52;0.13;;;;;;;8.83;100.00;99975.66;6162462;23;20130;-76
2024/04/02 07:35:55;;;;;;;2.63;0.20;;;;;;;9.06;100.00;99969.31;6186979;23;20033;-76
2024/04/02 07:38:23;;;;;;;0.55;0.20;;;;;;;9.26;100.00;99982.13;6190733;23;20079;-77
2024/04/02 07:40:56;;;;;;;1.48;0.30;;;;;;;9.40;100.00;99982.63;6197244;23;20033;-72
2024/04/02 07:43:22;;;;;;;0.55;0.13;;;;;;;9.59;100.00;99984.88;6191558;23;20107;-74
2024/04/02 07:45:53;;;;;;;1.27;0.28;;;;;;;9.63;100.00;99977.66;6179646;23;20029;-73
2024/04/02 07:48:20;;;;;;;4.53;0.43;;;;;;;9.82;100.00;99988.25;6173660;23;20021;-73
2024/04/02 07:50:49;;;;;;;0.93;0.43;;;;;;;9.96;100.00;99982.41;6185389;23;20028;-74
2024/04/02 07:53:15;;;;;;;4.43;0.17;;;;;;;9.99;100.00;99984.06;6175902;23;20032;-74
2024/04/02 07:55:43;;;;;;;0.80;0.25;;;;;;;9.85;100.00;99987.13;6176791;23;20667;-76
2024/04/02 07:58:11;;;;;;;2.83;0.57;;;;;;;9.87;100.00;99984.53;6176787;23;20035;-75
2024/04/02 08:00:40;;;;;;;2.75;0.43;;;;;;;10.04;100.00;99989.38;6177073;23;20025;-75
2024/04/02 08:03:08;;;;;;;2.50;0.47;;;;;;;10.15;100.00;99996.50;6200570;23;20017;-75
2024/04/02 08:05:35;;;;;;;1.90;0.47;;;;;;;10.29;100.00;99997.69;6152309;23;20479;-75
2024/04/02 08:08:03;;;;;;;5.20;0.38;;;;;;;10.38;100.00;99995.59;6177521;23;20040;-74
2024/04/02 08:10:30;;;;;;;0.70;0.50;;;;;;;10.28;100.00;99995.47;6176271;23;20096;-74
2024/04/02 08:12:58;;;;;;;2.58;0.43;;;;;;;10.63;100.00;99992.75;6200911;23;20064;-75
2024/04/02 08:15:28;;;;;;;3.40;0.35;;;;;;;10.74;100.00;99998.53;6176522;23;20029;-74
2024/04/02 08:17:55;;;;;;;2.80;0.40;;;;;;;10.79;100.00;100010.72;6200750;23;20534;-74
2024/04/02 08:20:23;;;;;;;4.05;0.60;;;;;;;10.97;100.00;100014.94;6176670;23;20029;-74
2024/04/02 08:22:51;;;;;;;4.22;0.73;;;;;;;11.26;100.00;100016.47;6174975;23;20021;-74
2024/04/02 08:25:19;;;;;;;2.35;0.45;;;;;;;11.30;100.00;100016.78;6201299;23;20021;-71
2024/04/02 08:27:46;;;;;;;1.75;0.25;;;;;;;11.29;100.00;100023.66;6176759;23;20359;-73
2024/04/02 08:30:13;;;;;;;2.38;0.45;;;;;;;11.19;100.00;100018.75;6175954;23;20036;-72
2024/04/02 08:32:41;;;;;;;1.55;0.40;;;;;;;10.95;100.00;100016.81;6176444;23;20399;-74
2024/04/02 08:35:09;;;;;;;4.85;0.32;;;;;;;10.80;100.00;100022.53;6176656;23;20029;-73
2024/04/02 08:37:36;;;;;;;3.45;0.57;;;;;;;10.63;100.00;100020.50;6176429;23;20071;-73
2024/04/02 08:40:04;;;;;;;1.70;0.57;;;;;;;10.49;100.00;100025.63;6176886;23;20021;-73
2024/04/02 08:42:37;;;;;;;1.73;0.30;;;;;;;10.36;100.00;100031.47;6176721;23;20577;-73
2024/04/02 08:45:09;;;;;;;3.75;0.40;;;;;;;10.30;100.00;100037.97;6200359;23;20025;-74
2024/04/02 08:47:37;;;;;;;3.38;0.43;;;;;;;10.26;100.00;100043.19;6176981;23;20055;-74
2024/04/02 08:50:10;;;;;;;3.00;0.60;;;;;;;10.21;100.00;100043.38;6175635;23;20025;-74
2024/04/02 08:52:36;;;;;;;3.38;0.50;;;;;;;10.29;100.00;100055.19;6152039;23;20360;-74
2024/04/02 08:55:04;;;;;;;7.90;1.15;;;;;;;10.67;100.00;100040.25;6176210;23;20083;-74
2024/04/02 08:57:32;;;;;;;4.82;0.40;;;;;;;11.92;100.00;100050.78;6202269;23;20025;-73
2024/04/02 09:00:06;;;;;;;7.00;0.60;;;;;;;11.86;100.00;100052.34;6152382;23;20028;-74
2024/04/02 09:02:33;;;;;;;1.10;0.38;;;;;;;11.55;100.00;100052.78;6181725;23;20031;-74
2024/04/02 09:05:01;;;;;;;3.85;1.15;;;;;;;11.13;100.00;100046.06;6181448;23;20087;-73
2024/04/02 09:07:28;;;;;;;1.10;0.35;;;;;;;11.12;100.00;100052.16;6157206;23;20087;-73
2024/04/02 09:09:57;;;;;;;1.08;0.28;;;;;;;11.04;100.00;100057.81;6181800;23;20025;-73
2024/04/02 09:12:24;;;;;;;3.80;0.55;;;;;;;10.85;100.00;100054.88;6181261;23;20027;-73
2024/04/02 09:14:52;;;;;;;5.97;0.50;;;;;;;10.70;100.00;100059.25;6180767;23;20473;-73
2024/04/02 09:17:19;;;;;;;1.00;0.28;;;;;;;10.75;100.00;100049.94;6182764;23;20100;-73
2024/04/02 09:19:47;;;;;;;4.25;0.57;;;;;;;10.76;100.00;100053.47;6157376;23;20383;-74
2024/04/02 09:22:16;;;;;;;1.67;0.32;;;;;;;10.74;100.00;100059.59;6180630;23;20024;-73
2024/04/02 09:24:47;;;;;;;0.85;0.20;;;;;;;10.81;100.00;100049.72;6181869;23;20037;-73
2024/04/02 09:27:15;;;;;;;5.30;0.63;;;;;;;10.93;100.00;100066.63;6203297;23;20034;-73
2024/04/02 09:29:42;;;;;;;1.40;0.45;;;;;;;10.86;100.00;100054.31;6202946;23;20044;-73
2024/04/02 09:32:10;;;;;;;4.38;1.17;;;;;;;11.74;100.00;100058.41;6182786;23;20023;-73
2024/04/02 09:34:40;;;;;;;3.80;0.55;;;;;;;12.99;100.00;100067.00;6206281;23;20028;-73
2024/04/02 09:37:15;;;;;;;6.07;0.68;;;;;;;13.15;100.00;100067.44;6180812;23;20546;-73
2024/04/02 09:39:44;;;;;;;1.30;0.25;;;;;;;13.41;100.00;100071.41;6206290;23;20189;-74
2024/04/02 09:42:12;;;;;;;3.17;0.77;;;;;;;14.06;100.00;100072.41;6206471;23;20021;-73
2024/04/02 09:44:41;;;;;;;2.25;0.50;;;;;;;13.82;100.00;100079.81;6181311;23;20706;-73
2024/04/02 09:47:10;;;;;;;4.03;0.30;;;;;;;13.58;100.00;100076.81;6180666;23;20028;-73
2024/04/02 09:49:40;;;;;;;1.30;0.25;;;;;;;13.36;100.00;100083.59;6181791;23;20254;-74
2024/04/02 09:52:08;;;;;;;1.40;0.20;;;;;;;13.20;100.00;100083.84;6155640;23;20063;-74
2024/04/02 09:54:37;;;;;;;1.75;0.28;;;;;;;13.10;100.00;100091.47;6180543;23;20490;-74
2024/04/02 09:57:07;;;;;;;1.77;0.52;;;;;;;13.13;100.00;100085.47;6181580;23;20036;-73
2024/04/02 09:59:37;;;;;;;0.95;0.32;;;;;;;13.46;100.00;100070.38;6157148;23;20024;-73
2024/04/02 10:02:07;;;;;;;0.90;0.10;;;;;;;13.97;100.00;100082.25;6181578;23;20025;-73
2024/04/02 10:04:35;;;;;;;0.82;0.30;;;;;;;14.08;100.00;100081.66;6183362;23;20028;-73
2024/04/02 10:07:02;;;;;;;1.25;0.32;;;;;;;14.64;100.00;100072.16;6181714;23;20033;-73
2024/04/02 10:09:42;;;;;;;1.58;0.45;;;;;;;14.50;100.00;100082.34;6183059;23;20088;-73
2024/04/02 10:12:09;;;;;;;2.40;0.68;;;;;;;14.07;100.00;100077.41;6182996;23;20384;-73
2024/04/02 10:14:39;;;;;;;1.90;0.63;;;;;;;14.30;100.00;100082.44;6182829;23;20029;-74
2024/04/02 10:17:12;;;;;;;2.67;0.40;;;;;;;14.18;100.00;100073.97;6183339;23;20085;-74
2024/04/02 10:19:44;;;;;;;7.05;0.40;;;;;;;13.83;100.00;100072.94;6182651;23;20020;-74
2024/04/02 10:22:10;;;;;;;1.15;0.45;;;;;;;13.77;100.00;100076.78;6157540;23;20035;-74
2024/04/02 10:24:38;;;;;;;0.65;0.17;;;;;;;13.22;100.00;100072.84;6182565;23;20470;-73
2024/04/02 10:27:08;;;;;;;5.15;0.43;;;;;;;12.96;100.00;100079.28;6133772;23;20107;-74
2024/04/02 10:29:36;;;;;;;2.85;0.57;;;;;;;13.16;100.00;100078.00;6182139;23;20021;-74
2024/04/02 10:32:05;;;;;;;2.38;0.75;;;;;;;13.32;100.00;100072.88;6181834;23;20028;-74
2024/04/02 10:34:33;;;;;;;2.75;0.60;;;;;;;13.09;100.00;100073.31;6183327;23;20029;-74
2024/04/02 10:37:02;;;;;;;3.42;0.40;;;;;;;13.06;100.00;100074.50;6159253;23;20443;-74
2024/04/02 10:39:31;;;;;;;2.03;0.93;;;;;;;13.08;100.00;100069.78;6184696;23;20060;-74
2024/04/02 10:42:02;;;;;;;5.03;0.60;;;;;;;13.10;100.00;100072.72;6185585;23;20025;-74
2024/04/02 10:44:33;;;;;;;2.05;0.50;;;;;;;13.11;100.00;100065.09;6203258;23;20082;-72
2024/04/02 10:47:05;;;;;;;2.80;0.50;;;;;;;12.96;100.00;100068.16;6195495;23;20028;-72
2024/04/02 10:49:31;;;;;;;3.40;1.02;;;;;;;12.80;100.00;100078.84;6182990;23;20112;-72
2024/04/02 10:52:05;;;;;;;13.57;1.65;;;;;;;13.01;100.00;100075.50;6183238;23;20418;-75
2024/04/02 10:54:31;;;;;;;0.43;0.08;;;;;;;13.04;100.00;100074.34;6182705;23;20028;-73
2024/04/02 10:56:59;;;;;;;1.02;0.45;;;;;;;13.14;100.00;100080.63;6182738;23;20024;-74
2024/04/02 10:59:27;;;;;;;3.13;0.30;;;;;;;13.06;100.00;100069.66;6183286;23;20129;-75
2024/04/02 11:02:00;;;;;;;0.55;0.32;;;;;;;13.25;100.00;100062.59;6181440;23;20036;-73
2024/04/02 11:04:29;;;;;;;1.75;0.30;;;;;;;13.43;100.00;100063.94;6129713;23;20083;-74
2024/04/02 11:06:56;;;;;;;3.05;0.45;;;;;;;13.51;100.00;100060.97;6152975;23;20372;-74
2024/04/02 11:09:23;;;;;;;2.38;0.13;;;;;;;13.66;100.00;100060.66;6154134;23;20130;-75
2024/04/02 11:11:52;;;;;;;1.95;0.57;;;;;;;14.06;100.00;100053.59;6153715;23;20131;-75
2024/04/02 11:14:19;;;;;;;2.47;0.45;;;;;;;14.70;100.00;100066.97;6178177;23;20372;-75
2024/04/02 11:16:46;;;;;;;0.85;0.20;;;;;;;15.15;100.00;100069.13;6153892;23;20094;-73
2024/04/02 11:19:15;;;;;;;1.27;0.22;;;;;;;15.29;100.00;100053.25;6154547;23;20029;-75
2024/04/02 11:21:45;;;;;;;2.55;0.52;;;;;;;14.98;100.00;100059.69;6153169;23;20025;-75
2024/04/02 11:27:04;;;;;;;1.00;0.17;;;;;;;14.62;100.00;100069.94;6154736;23;20473;-74
2024/04/02 11:29:30;;;;;;;2.40;0.50;;;;;;;14.56;100.00;100069.56;6155072;23;20025;-76
2024/04/02 11:31:58;;;;;;;2.72;0.22;;;;;;;14.32;100.00;100063.03;6158509;23;20029;-75
2024/04/02 11:34:25;;;;;;;1.17;0.25;;;;;;;13.76;100.00;100069.00;6179890;23;20029;-75
2024/04/02 11:36:54;;;;;;;1.23;0.15;;;;;;;13.92;100.00;100061.00;6160249;23;20029;-73